createdAt,value
2018-01-17T00:00:51.624Z,4.50
2018-01-17T00:03:19.122Z,4.10
2018-01-17T00:05:47.372Z,4.40
2018-01-17T00:08:15.236Z,4.20
2018-01-17T00:10:43.869Z,4.50
2018-01-17T00:13:11.341Z,4.50
2018-01-17T00:15:39.546Z,4.70
2018-01-17T00:18:07.087Z,4.60
2018-01-17T00:20:34.579Z,4.50
2018-01-17T00:23:02.021Z,4.40
2018-01-17T00:25:29.477Z,4.50
2018-01-17T00:27:56.926Z,4.40
2018-01-17T00:30:24.371Z,4.20
2018-01-17T00:32:51.831Z,4.30
2018-01-17T00:35:19.283Z,4.30
2018-01-17T00:37:46.733Z,4.30
2018-01-17T00:40:14.183Z,4.30
2018-01-17T00:42:42.399Z,4.40
2018-01-17T00:45:09.837Z,4.30
2018-01-17T00:47:37.279Z,4.30
2018-01-17T00:50:04.722Z,4.40
2018-01-17T00:52:32.176Z,4.20
2018-01-17T00:55:00.387Z,4.40
2018-01-17T00:57:27.838Z,4.60
2018-01-17T00:59:55.274Z,4.70
2018-01-17T01:02:22.715Z,5.20
2018-01-17T01:04:50.931Z,4.90
2018-01-17T01:07:18.388Z,4.70
2018-01-17T01:09:46.231Z,4.60
2018-01-17T01:12:13.682Z,4.50
2018-01-17T01:14:41.139Z,4.60
2018-01-17T01:17:08.594Z,4.60
2018-01-17T01:19:36.041Z,4.50
2018-01-17T01:22:04.242Z,4.20
2018-01-17T01:24:31.713Z,4.10
2018-01-17T01:26:59.926Z,4.40
2018-01-17T01:29:27.385Z,4.30
2018-01-17T01:31:54.874Z,4.40
2018-01-17T01:34:23.120Z,4.50
2018-01-17T01:36:50.602Z,4.50
2018-01-17T01:39:18.824Z,4.30
2018-01-17T01:41:46.857Z,4.20
2018-01-17T01:44:15.105Z,4.40
2018-01-17T01:46:42.585Z,4.40
2018-01-17T01:49:10.842Z,4.60
2018-01-17T01:51:38.314Z,4.60
2018-01-17T01:54:06.550Z,4.90
2018-01-17T01:56:34.033Z,4.90
2018-01-17T01:59:02.273Z,4.90
2018-01-17T02:01:29.770Z,5.10
2018-01-17T02:03:58.005Z,5.00
2018-01-17T02:06:25.486Z,5.10
2018-01-17T02:08:52.957Z,5.10
2018-01-17T02:11:21.208Z,5.30
2018-01-17T02:13:48.691Z,5.30
2018-01-17T02:16:16.939Z,5.40
2018-01-17T02:18:44.425Z,5.40
2018-01-17T02:21:12.634Z,5.50
2018-01-17T02:23:40.079Z,5.40
2018-01-17T02:26:07.534Z,5.30
2018-01-17T02:28:34.990Z,5.30
2018-01-17T02:31:02.456Z,5.30
2018-01-17T02:33:29.920Z,5.10
2018-01-17T02:35:57.358Z,4.80
2018-01-17T02:38:24.798Z,4.80
2018-01-17T02:40:52.256Z,4.60
2018-01-17T02:43:19.694Z,4.60
2018-01-17T02:45:47.905Z,4.50
2018-01-17T02:48:15.357Z,4.40
2018-01-17T02:50:42.811Z,4.50
2018-01-17T02:53:10.254Z,4.10
2018-01-17T02:55:38.458Z,3.80
2018-01-17T02:58:05.916Z,3.70
2018-01-17T03:00:33.383Z,3.60
2018-01-17T03:03:00.848Z,3.80
2018-01-17T03:05:28.282Z,3.70
2018-01-17T03:07:55.730Z,3.80
2018-01-17T03:10:23.180Z,3.70
2018-01-17T03:12:50.617Z,3.90
2018-01-17T03:15:18.827Z,4.00
2018-01-17T03:17:46.270Z,4.00
2018-01-17T03:20:13.718Z,4.00
2018-01-17T03:22:41.165Z,3.90
2018-01-17T03:25:09.377Z,3.90
2018-01-17T03:27:36.816Z,3.80
2018-01-17T03:30:04.270Z,4.10
2018-01-17T03:32:31.704Z,4.20
2018-01-17T03:34:59.923Z,4.30
2018-01-17T03:37:27.367Z,4.20
2018-01-17T03:39:54.802Z,4.20
2018-01-17T03:42:22.248Z,4.00
2018-01-17T03:44:50.452Z,4.00
2018-01-17T03:47:17.912Z,4.00
2018-01-17T03:49:45.359Z,3.90
2018-01-17T03:52:12.811Z,3.90
2018-01-17T03:54:40.257Z,3.70
2018-01-17T03:57:07.711Z,3.60
2018-01-17T03:59:35.159Z,3.70
2018-01-17T04:02:03.370Z,4.00
2018-01-17T04:04:30.819Z,4.10
2018-01-17T04:06:58.255Z,3.80
2018-01-17T04:09:26.106Z,4.00
2018-01-17T04:11:54.318Z,3.80
2018-01-17T04:14:22.152Z,3.60
2018-01-17T04:16:50.423Z,3.50
2018-01-17T04:19:18.623Z,3.60
2018-01-17T04:21:46.094Z,3.50
2018-01-17T04:24:13.543Z,3.60
2018-01-17T04:26:41.001Z,3.60
2018-01-17T04:29:08.436Z,3.50
2018-01-17T04:31:36.653Z,3.40
2018-01-17T04:34:04.096Z,3.30
2018-01-17T04:36:31.539Z,3.30
2018-01-17T04:38:58.984Z,3.30
2018-01-17T04:41:26.435Z,3.10
2018-01-17T04:43:54.629Z,2.90
2018-01-17T04:46:22.068Z,2.80
2018-01-17T04:48:49.505Z,2.80
2018-01-17T04:51:16.968Z,2.50
2018-01-17T04:53:45.180Z,2.40
2018-01-17T04:56:12.631Z,2.30
2018-01-17T04:58:40.073Z,2.40
2018-01-17T05:01:08.465Z,2.40
2018-01-17T05:03:36.676Z,2.20
2018-01-17T05:06:04.111Z,2.20
2018-01-17T05:08:31.549Z,2.30
2018-01-17T05:10:58.987Z,2.40
2018-01-17T05:13:26.451Z,2.40
2018-01-17T05:15:53.900Z,2.50
2018-01-17T05:18:21.400Z,2.50
2018-01-17T05:20:48.838Z,2.50
2018-01-17T05:23:16.297Z,2.60
2018-01-17T05:25:43.731Z,2.50
2018-01-17T05:28:11.179Z,2.60
2018-01-17T05:30:39.381Z,2.70
2018-01-17T05:33:06.832Z,2.60
2018-01-17T05:35:34.266Z,2.70
2018-01-17T05:38:02.488Z,2.80
2018-01-17T05:40:29.923Z,2.70
2018-01-17T05:42:57.368Z,2.60
2018-01-17T05:45:24.817Z,2.60
2018-01-17T05:47:52.273Z,2.60
2018-01-17T05:50:20.467Z,2.70
2018-01-17T05:52:47.914Z,2.70
2018-01-17T05:55:15.370Z,2.90
2018-01-17T05:57:42.824Z,2.90
2018-01-17T06:00:10.267Z,2.90
2018-01-17T06:02:37.722Z,2.80
2018-01-17T06:05:05.940Z,2.80
2018-01-17T06:07:33.379Z,2.70
2018-01-17T06:10:00.839Z,2.70
2018-01-17T06:12:28.275Z,2.80
2018-01-17T06:14:55.731Z,2.90
2018-01-17T06:17:23.162Z,2.80
2018-01-17T06:19:51.373Z,3.00
2018-01-17T06:22:18.809Z,2.90
2018-01-17T06:24:47.016Z,3.00
2018-01-17T06:27:14.470Z,3.00
2018-01-17T06:29:41.918Z,2.90
2018-01-17T06:32:09.360Z,2.90
2018-01-17T06:34:36.816Z,3.10
2018-01-17T06:37:04.313Z,3.10
2018-01-17T06:39:31.772Z,3.20
2018-01-17T06:41:59.989Z,3.20
2018-01-17T06:44:28.197Z,3.20
2018-01-17T06:46:55.643Z,3.20
2018-01-17T06:49:23.074Z,3.10
2018-01-17T06:51:51.294Z,2.90
2018-01-17T06:54:18.750Z,3.00
2018-01-17T06:56:46.203Z,3.00
2018-01-17T06:59:13.656Z,3.00
2018-01-17T07:01:41.104Z,3.10
2018-01-17T07:04:08.550Z,3.10
2018-01-17T07:06:36.004Z,3.10
2018-01-17T07:09:03.459Z,3.00
2018-01-17T07:11:30.902Z,2.80
2018-01-17T07:13:58.350Z,2.80
2018-01-17T07:16:26.559Z,2.90
2018-01-17T07:18:54.007Z,2.80
2018-01-17T07:21:21.460Z,2.90
2018-01-17T07:23:48.895Z,3.00
2018-01-17T07:26:17.110Z,3.10
2018-01-17T07:28:44.551Z,3.10
2018-01-17T07:31:12.010Z,3.00
2018-01-17T07:33:39.447Z,3.00
2018-01-17T07:36:07.674Z,3.20
2018-01-17T07:38:35.113Z,3.10
2018-01-17T07:41:02.574Z,3.30
2018-01-17T07:43:30.032Z,3.30
2018-01-17T07:45:57.485Z,3.20
2018-01-17T07:48:24.936Z,3.20
2018-01-17T07:50:52.374Z,3.20
2018-01-17T07:53:19.802Z,3.20
2018-01-17T07:55:48.021Z,3.20
2018-01-17T07:58:15.464Z,3.10
2018-01-17T08:00:42.911Z,2.90
2018-01-17T08:03:10.349Z,2.70
2018-01-17T08:05:37.793Z,2.40
2018-01-17T08:08:05.229Z,2.40
2018-01-17T08:10:33.448Z,2.20
2018-01-17T08:13:01.649Z,2.40
2018-01-17T08:15:29.095Z,2.30
2018-01-17T08:17:56.523Z,2.50
2018-01-17T08:20:24.749Z,2.90
2018-01-17T08:22:52.194Z,2.80
2018-01-17T08:25:19.980Z,2.70
2018-01-17T08:27:47.435Z,2.30
2018-01-17T08:30:15.641Z,1.70
2018-01-17T08:32:43.088Z,1.60
2018-01-17T08:35:10.531Z,1.60
2018-01-17T08:37:37.977Z,1.40
2018-01-17T08:40:05.406Z,1.30
2018-01-17T08:42:32.854Z,1.30
2018-01-17T08:45:00.287Z,1.10
2018-01-17T08:47:28.503Z,1.30
2018-01-17T08:49:55.948Z,1.30
2018-01-17T08:52:23.399Z,1.40
2018-01-17T08:54:50.841Z,1.50
2018-01-17T08:57:19.070Z,1.60
2018-01-17T08:59:46.503Z,1.50
2018-01-17T09:02:13.953Z,1.80
2018-01-17T09:04:41.392Z,1.80
2018-01-17T09:07:08.846Z,1.90
2018-01-17T09:09:36.275Z,2.10
2018-01-17T09:12:03.729Z,2.20
2018-01-17T09:14:31.175Z,2.30
2018-01-17T09:16:58.624Z,2.40
2018-01-17T09:19:26.062Z,2.40
2018-01-17T09:21:53.523Z,2.50
2018-01-17T09:24:20.960Z,2.60
2018-01-17T09:26:48.409Z,2.70
2018-01-17T09:29:15.840Z,2.50
2018-01-17T09:31:44.054Z,2.50
2018-01-17T09:34:11.487Z,2.50
2018-01-17T09:36:38.941Z,2.70
2018-01-17T09:39:07.162Z,3.20
2018-01-17T09:41:34.623Z,3.20
2018-01-17T09:44:02.058Z,3.20
2018-01-17T09:46:29.507Z,3.10
2018-01-17T09:48:56.951Z,3.20
2018-01-17T09:51:24.399Z,3.30
2018-01-17T09:53:51.852Z,3.40
2018-01-17T09:56:20.061Z,2.00
2018-01-17T09:58:47.499Z,1.90
2018-01-17T10:01:14.952Z,1.80
2018-01-17T10:03:42.391Z,1.70
2018-01-17T10:06:10.600Z,1.50
2018-01-17T10:08:38.032Z,1.40
2018-01-17T10:11:05.485Z,1.80
2018-01-17T10:13:32.966Z,2.00
2018-01-17T10:16:00.405Z,2.20
2018-01-17T10:18:27.851Z,2.40
2018-01-17T10:20:56.043Z,2.40
2018-01-17T10:23:23.492Z,2.30
2018-01-17T10:25:50.931Z,2.60
2018-01-17T10:28:19.143Z,2.60
2018-01-17T10:30:46.600Z,2.60
2018-01-17T10:33:14.055Z,2.90
2018-01-17T10:35:41.491Z,3.00
2018-01-17T10:38:08.949Z,3.40
2018-01-17T10:40:36.379Z,3.80
2018-01-17T10:43:03.948Z,4.00
2018-01-17T10:45:32.203Z,4.50
2018-01-17T10:47:59.648Z,4.50
2018-01-17T10:50:27.091Z,4.60
2018-01-17T10:52:54.567Z,4.60
2018-01-17T10:55:22.756Z,4.20
2018-01-17T10:57:50.962Z,4.00
2018-01-17T11:00:18.407Z,3.90
2018-01-17T11:02:45.851Z,3.60
2018-01-17T11:05:14.059Z,3.30
2018-01-17T11:07:41.514Z,3.20
2018-01-17T11:10:08.950Z,3.40
2018-01-17T11:12:36.399Z,3.20
2018-01-17T11:15:04.604Z,3.10
2018-01-17T11:17:32.054Z,3.10
2018-01-17T11:19:59.490Z,3.00
2018-01-17T11:22:26.939Z,3.10
2018-01-17T11:24:55.148Z,2.70
2018-01-17T11:27:22.596Z,2.60
2018-01-17T11:29:50.035Z,2.60
2018-01-17T11:32:17.482Z,2.40
2018-01-17T11:34:45.693Z,2.40
2018-01-17T11:37:13.137Z,2.30
2018-01-17T11:39:40.582Z,2.10
2018-01-17T11:42:08.024Z,1.90
2018-01-17T11:44:36.219Z,1.80
2018-01-17T11:47:03.667Z,1.70
2018-01-17T11:49:31.102Z,1.90
2018-01-17T11:52:01.210Z,1.70
2018-01-17T11:54:28.647Z,1.70
2018-01-17T11:56:56.149Z,1.80
2018-01-17T11:59:24.355Z,1.70
2018-01-17T12:01:51.791Z,1.70
2018-01-17T12:04:19.227Z,1.80
2018-01-17T12:06:47.433Z,1.70
2018-01-17T12:09:14.872Z,1.70
2018-01-17T12:11:42.361Z,1.60
2018-01-17T12:14:09.804Z,1.30
2018-01-17T12:16:37.240Z,1.10
2018-01-17T12:19:04.704Z,0.90
2018-01-17T12:21:32.134Z,1.00
2018-01-17T12:24:00.355Z,1.20
2018-01-17T12:26:27.801Z,1.10
2018-01-17T12:28:55.253Z,1.20
2018-01-17T12:31:22.688Z,1.40
2018-01-17T12:33:50.902Z,1.90
2018-01-17T12:36:18.340Z,1.80
2018-01-17T12:38:45.788Z,2.00
2018-01-17T12:41:13.242Z,2.00
2018-01-17T12:43:40.683Z,2.00
2018-01-17T12:46:08.127Z,2.10
2018-01-17T12:48:35.567Z,2.10
2018-01-17T12:51:03.008Z,2.30
2018-01-17T12:53:30.450Z,2.00
2018-01-17T12:55:57.889Z,1.80
2018-01-17T12:58:25.332Z,1.70
2018-01-17T13:00:52.774Z,1.70
2018-01-17T13:03:20.223Z,2.00
2018-01-17T13:05:48.446Z,2.00
2018-01-17T13:08:15.879Z,2.00
2018-01-17T13:10:43.316Z,1.90
2018-01-17T13:13:11.556Z,2.00
2018-01-17T13:15:39.748Z,2.20
2018-01-17T13:18:07.190Z,2.10
2018-01-17T13:20:34.625Z,2.10
2018-01-17T13:23:02.078Z,1.90
2018-01-17T13:25:29.523Z,1.70
2018-01-17T13:27:56.973Z,1.50
2018-01-17T13:30:24.415Z,1.40
2018-01-17T13:32:53.537Z,1.60
2018-01-17T13:35:20.960Z,1.60
2018-01-17T13:37:49.182Z,1.50
2018-01-17T13:40:17.367Z,1.60
2018-01-17T13:42:44.828Z,1.60
2018-01-17T13:45:12.279Z,1.50
2018-01-17T13:47:39.728Z,1.50
2018-01-17T13:50:07.183Z,1.40
2018-01-17T13:52:34.630Z,1.60
2018-01-17T13:55:02.081Z,1.80
2018-01-17T13:57:29.532Z,1.90
2018-01-17T13:59:56.974Z,2.00
2018-01-17T14:02:24.422Z,2.00
2018-01-17T14:04:52.621Z,2.10
2018-01-17T14:07:20.306Z,2.10
2018-01-17T14:09:47.746Z,2.00
2018-01-17T14:12:15.995Z,1.80
2018-01-17T14:14:43.443Z,1.80
2018-01-17T14:17:11.695Z,1.80
2018-01-17T14:19:39.104Z,1.80
2018-01-17T14:22:06.560Z,2.00
2018-01-17T14:24:34.746Z,2.10
2018-01-17T14:27:02.175Z,2.00
2018-01-17T14:29:29.632Z,2.00
2018-01-17T14:31:57.060Z,2.00
2018-01-17T14:34:25.289Z,2.10
2018-01-17T14:36:52.725Z,2.00
2018-01-17T14:39:20.167Z,2.00
2018-01-17T14:41:47.632Z,1.90
2018-01-17T14:44:15.081Z,1.80
2018-01-17T14:46:42.514Z,1.80
2018-01-17T14:49:09.974Z,1.90
2018-01-17T14:51:38.183Z,2.00
2018-01-17T14:54:05.644Z,2.00
2018-01-17T14:56:33.071Z,2.10
2018-01-17T14:59:01.284Z,2.10
2018-01-17T15:01:28.723Z,2.10
2018-01-17T15:03:56.171Z,2.10
2018-01-17T15:06:23.612Z,2.00
2018-01-17T15:08:51.829Z,2.00
2018-01-17T15:11:19.261Z,2.00
2018-01-17T15:13:46.699Z,2.00
2018-01-17T15:16:14.905Z,1.90
2018-01-17T15:18:42.366Z,1.90
2018-01-17T15:21:09.795Z,1.90
2018-01-17T15:23:37.245Z,2.00
2018-01-17T15:26:05.440Z,1.70
2018-01-17T15:28:32.889Z,1.70
2018-01-17T15:31:00.333Z,1.70
2018-01-17T15:33:28.572Z,1.70
2018-01-17T15:35:56.011Z,1.70
2018-01-17T15:38:23.471Z,1.70
2018-01-17T15:40:50.929Z,1.80
2018-01-17T15:43:18.396Z,2.10
2018-01-17T15:45:45.830Z,2.30
2018-01-17T15:48:13.274Z,2.30
2018-01-17T15:50:40.720Z,2.20
2018-01-17T15:53:08.304Z,2.40
2018-01-17T15:55:35.751Z,2.40
2018-01-17T15:58:03.186Z,2.40
2018-01-17T16:00:30.650Z,2.60
2018-01-17T16:02:58.112Z,2.60
2018-01-17T16:05:25.583Z,2.40
2018-01-17T16:07:53.033Z,2.20
2018-01-17T16:10:20.481Z,2.00
2018-01-17T16:12:47.920Z,1.90
2018-01-17T16:15:15.356Z,1.80
2018-01-17T16:17:43.582Z,2.10
2018-01-17T16:20:11.027Z,2.00
2018-01-17T16:22:39.303Z,2.00
2018-01-17T16:25:06.753Z,1.80
2018-01-17T16:27:34.217Z,1.90
2018-01-17T16:30:01.655Z,1.90
2018-01-17T16:32:29.108Z,1.90
2018-01-17T16:34:56.554Z,1.90
2018-01-17T16:37:24.771Z,1.80
2018-01-17T16:39:52.203Z,1.80
2018-01-17T16:42:19.643Z,1.90
2018-01-17T16:44:47.873Z,2.20
2018-01-17T16:47:15.303Z,2.10
2018-01-17T16:49:42.753Z,2.20
2018-01-17T16:52:10.201Z,2.20
2018-01-17T16:54:37.642Z,2.10
2018-01-17T16:57:05.863Z,1.90
2018-01-17T16:59:33.319Z,1.90
2018-01-17T17:02:00.773Z,2.00
2018-01-17T17:04:28.223Z,1.70
2018-01-17T17:06:55.678Z,1.70
2018-01-17T17:09:23.174Z,1.70
2018-01-17T17:11:50.582Z,1.70
2018-01-17T17:14:18.020Z,1.80
2018-01-17T17:16:45.468Z,1.80
2018-01-17T17:19:13.675Z,2.00
2018-01-17T17:21:41.132Z,2.00
2018-01-17T17:24:08.564Z,1.90
2018-01-17T17:26:36.007Z,1.80
2018-01-17T17:29:04.234Z,1.70
2018-01-17T17:31:31.696Z,1.60
2018-01-17T17:33:59.132Z,1.70
2018-01-17T17:36:26.579Z,1.70
2018-01-17T17:38:54.029Z,1.80
2018-01-17T17:41:21.459Z,1.80
2018-01-17T17:43:49.737Z,1.80
2018-01-17T17:46:17.935Z,1.90
2018-01-17T17:48:45.390Z,1.80
2018-01-17T17:51:12.829Z,2.00
2018-01-17T17:53:40.276Z,1.80
2018-01-17T17:56:08.475Z,1.80
2018-01-17T17:58:35.935Z,1.80
2018-01-17T18:01:03.368Z,1.90
2018-01-17T18:03:31.633Z,1.90
2018-01-17T18:05:59.014Z,1.80
2018-01-17T18:08:26.720Z,1.80
2018-01-17T18:10:54.158Z,1.80
2018-01-17T18:13:21.688Z,1.80
2018-01-17T18:15:49.144Z,1.90
2018-01-17T18:18:16.594Z,1.80
2018-01-17T18:20:44.051Z,1.80
2018-01-17T18:23:12.257Z,1.90
2018-01-17T18:25:39.703Z,1.80
2018-01-17T18:28:07.140Z,1.90
2018-01-17T18:30:35.347Z,2.20
2018-01-17T18:33:02.799Z,2.10
2018-01-17T18:35:30.260Z,2.00
2018-01-17T18:37:57.707Z,1.90
2018-01-17T18:40:25.168Z,2.00
2018-01-17T18:42:52.610Z,2.00
2018-01-17T18:45:20.059Z,2.10
2018-01-17T18:47:48.318Z,2.30
2018-01-17T18:50:15.711Z,2.30
2018-01-17T18:52:43.159Z,2.40
2018-01-17T18:55:10.607Z,2.40
2018-01-17T18:57:38.055Z,2.40
2018-01-17T19:00:05.491Z,2.40
2018-01-17T19:02:33.708Z,2.80
2018-01-17T19:05:01.154Z,2.80
2018-01-17T19:07:29.352Z,2.40
2018-01-17T19:09:56.814Z,2.30
2018-01-17T19:12:24.264Z,2.50
2018-01-17T19:14:51.705Z,2.40
2018-01-17T19:17:19.169Z,2.10
2018-01-17T19:19:46.602Z,2.00
2018-01-17T19:22:14.043Z,2.10
2018-01-17T19:24:42.268Z,2.00
2018-01-17T19:27:09.718Z,1.90
2018-01-17T19:29:37.171Z,2.00
2018-01-17T19:32:04.615Z,1.90
2018-01-17T19:34:32.068Z,1.90
2018-01-17T19:36:59.561Z,2.00
2018-01-17T19:39:27.001Z,1.90
2018-01-17T19:41:54.435Z,1.70
2018-01-17T19:44:21.933Z,1.70
2018-01-17T19:46:49.363Z,1.70
2018-01-17T19:49:16.864Z,1.80
2018-01-17T19:51:44.344Z,1.90
2018-01-17T19:54:12.534Z,2.00
2018-01-17T19:56:40.029Z,2.00
2018-01-17T19:59:07.456Z,2.20
2018-01-17T20:01:34.906Z,2.20
2018-01-17T20:04:02.348Z,2.10
2018-01-17T20:06:30.607Z,2.20
2018-01-17T20:08:58.033Z,2.20
2018-01-17T20:11:26.399Z,2.00
2018-01-17T20:13:53.847Z,2.00
2018-01-17T20:16:21.319Z,2.10
2018-01-17T20:18:48.806Z,2.10
2018-01-17T20:21:16.247Z,2.20
2018-01-17T20:23:43.711Z,1.90
2018-01-17T20:26:11.152Z,1.90
2018-01-17T20:28:38.597Z,1.90
2018-01-17T20:31:06.062Z,1.90
2018-01-17T20:33:33.512Z,1.90
2018-01-17T20:36:00.958Z,2.00
2018-01-17T20:38:28.441Z,2.10
2018-01-17T20:40:55.883Z,2.20
2018-01-17T20:43:23.328Z,2.00
2018-01-17T20:45:50.776Z,2.00
2018-01-17T20:48:18.258Z,2.10
2018-01-17T20:50:45.695Z,2.50
2018-01-17T20:53:13.395Z,2.60
2018-01-17T20:55:40.877Z,2.60
2018-01-17T20:58:08.306Z,2.70
2018-01-17T21:00:35.799Z,2.80
2018-01-17T21:03:04.000Z,2.60
2018-01-17T21:05:31.448Z,2.60
2018-01-17T21:07:58.934Z,2.50
2018-01-17T21:10:26.372Z,2.50
2018-01-17T21:12:53.820Z,2.50
2018-01-17T21:15:21.385Z,2.60
2018-01-17T21:17:48.822Z,2.60
2018-01-17T21:20:16.566Z,2.60
2018-01-17T21:22:44.007Z,2.60
2018-01-17T21:25:11.741Z,2.50
2018-01-17T21:27:39.254Z,2.60
2018-01-17T21:30:07.499Z,3.00
2018-01-17T21:32:35.746Z,3.00
2018-01-17T21:35:03.186Z,2.90
2018-01-17T21:37:30.646Z,2.90
2018-01-17T21:39:58.086Z,2.90
2018-01-17T21:42:31.281Z,2.80
2018-01-17T21:45:04.467Z,2.70
2018-01-17T21:47:31.908Z,2.50
2018-01-17T21:50:00.161Z,2.30
2018-01-17T21:52:27.596Z,2.30
2018-01-17T21:54:55.090Z,2.30
2018-01-17T21:57:23.295Z,2.40
2018-01-17T21:59:50.799Z,2.40
2018-01-17T22:02:18.224Z,2.50
2018-01-17T22:04:45.714Z,2.60
2018-01-17T22:07:13.277Z,2.70
2018-01-17T22:09:41.543Z,2.10
2018-01-17T22:12:09.094Z,2.00
2018-01-17T22:14:39.108Z,2.10
2018-01-17T22:17:07.397Z,2.10
2018-01-17T22:19:54.458Z,2.00
2018-01-17T22:22:23.812Z,2.00
2018-01-17T22:24:53.239Z,2.00
2018-01-17T22:27:21.933Z,2.10
2018-01-17T22:29:52.734Z,2.20
2018-01-17T22:32:20.630Z,2.10
2018-01-17T22:34:50.227Z,2.20
2018-01-17T22:37:19.425Z,2.30
2018-01-17T22:39:48.881Z,2.40
2018-01-17T22:42:16.424Z,2.40
2018-01-17T22:44:43.903Z,2.30
2018-01-17T22:47:13.089Z,2.40
2018-01-17T22:49:41.965Z,2.20
2018-01-17T22:52:12.516Z,2.10
2018-01-17T22:54:44.178Z,2.00
2018-01-17T22:57:13.460Z,2.10
2018-01-17T22:59:41.069Z,2.20
2018-01-17T23:04:45.269Z,1.90
2018-01-17T23:07:21.429Z,1.60
2018-01-17T23:09:50.816Z,1.80
2018-01-17T23:12:27.184Z,1.90
2018-01-17T23:14:56.969Z,2.10
2018-01-17T23:17:30.965Z,1.80
2018-01-17T23:20:09.047Z,1.70
2018-01-17T23:22:42.242Z,1.80
2018-01-17T23:25:11.534Z,1.50
2018-01-17T23:27:41.159Z,1.50
2018-01-17T23:30:13.250Z,1.60
2018-01-17T23:32:42.973Z,1.80
2018-01-17T23:35:12.574Z,1.90
2018-01-17T23:37:40.432Z,1.90
2018-01-17T23:40:12.468Z,2.00
2018-01-17T23:42:41.953Z,1.80
2018-01-17T23:45:12.277Z,2.00
2018-01-17T23:47:42.105Z,2.10
2018-01-17T23:50:13.386Z,2.20
2018-01-17T23:52:41.653Z,2.00
2018-01-17T23:55:10.428Z,2.10
2018-01-17T23:57:38.597Z,2.20
